Kezdőlap
METAR-TAF:

METAR-TAF

Repülőterek :

Eau Claire, Wisconsin, Amerikai Egyesült Államok

földrajzi szélesség: 44-51-55N, földrajzi hosszúság: 091-29-06W, magasság: 277 m

Jelenlegi meteorológiai megfigyelések

A jelentés 43 perccel ezelõtt készült, 09:56 UTC
Szélcsend
Hőmérséklet 1°C
Páratartalom 86%
Légköri nyomás 1018 hPa
Látótávolság: 16.1 km
Borult 10000 lábon

METAR: KEAU 230956Z AUTO 00000KT 10SM OVC100 01/M01 A3006 RMK AO2 SLP185 T00111011

Idő: 05:39 (10:39 UTC)

Előrejelzés

A jelentés 5 órával és 19 perccel ezelõtt készült, 05:20 UTC
Az előrejelzés 23-én 06 óra UTC és 24-én 06 óra UTC között érvényes
Északi szél 3 kt
Látótávolság: 10 km
Szakadozott felhőzet 4000 lábon
23-én 1500 órától UTC szerint
Kelet-északkeleti szél 4 kt
Látótávolság: 10 km
Derült ég

TAF: KEAU 230520Z 2306/2406 36003KT P6SM BKN040 FM231500 06004KT P6SM SKC

Meteorológiai megfigyelések és előrejelzések több, mint 4000 repülőtéren (METAR és TAF jelentéseket).

A térképen piros és sárga pontok jelzik az elérhető meteorológiai állomásokat.

Mozgassa az egeret a pont fölött, hogy megjelenjen az állomás neve.

Azután kattintson az időjárási megfigyelések és előrejelzések megtekintéséhez.

A térkép megváltoztatása: kattintson a fekete keresztel jelölt zöld gombra ráközelítéshez, a vonallal jelölt zöld gombra távolításhoz, vagy a zöld nyilakra a szomszédos térképek eléréséhez.


METAR-TAF: